Time;durP1;ratioP1;P1;durP2;ratioP2;P2;SDS_P1;SDS_P2;PMS_P1;PMS_P2;Temp;Humidity;BMP_temperature;BMP_pressure;BME280_temperature;BME280_humidity;BME280_pressure;Samples;Min_cycle;Max_cycle;Signal;HPM_P1;HPM_P2
2023/09/07 00:02:14;;;;;;;7.07;6.37;;;;;;;14.83;100.00;97386.47;4901804;29;20224;-65
2023/09/07 00:04:43;;;;;;;7.23;6.73;;;;;;;14.75;100.00;97380.31;4786016;29;20309;-59
2023/09/07 00:07:12;;;;;;;7.03;6.50;;;;;;;14.70;100.00;97380.13;4903590;29;20271;-58
2023/09/07 00:09:41;;;;;;;7.10;6.50;;;;;;;14.67;100.00;97385.00;4896325;29;20596;-69
2023/09/07 00:12:08;;;;;;;7.17;6.60;;;;;;;14.66;100.00;97383.34;4900437;29;20232;-60
2023/09/07 00:14:36;;;;;;;7.53;6.97;;;;;;;14.63;100.00;97389.94;4899606;29;20776;-60
2023/09/07 00:17:04;;;;;;;6.57;6.17;;;;;;;14.56;100.00;97386.41;4902910;29;20287;-65
2023/09/07 00:19:33;;;;;;;6.40;6.00;;;;;;;14.58;100.00;97390.53;4895648;29;20201;-57
2023/09/07 00:22:01;;;;;;;7.63;7.03;;;;;;;14.57;100.00;97388.06;4898688;29;20283;-64
2023/09/07 00:24:31;;;;;;;7.67;6.97;;;;;;;14.59;100.00;97384.19;4901130;29;20248;-60
2023/09/07 00:26:59;;;;;;;7.33;6.83;;;;;;;14.62;100.00;97388.28;4900496;29;20240;-67
2023/09/07 00:29:26;;;;;;;7.03;6.43;;;;;;;14.62;100.00;97377.63;4898936;29;20231;-67
2023/09/07 00:31:54;;;;;;;7.57;6.87;;;;;;;14.60;100.00;97383.16;4903227;29;20796;-64
2023/09/07 00:34:22;;;;;;;6.97;6.37;;;;;;;14.53;100.00;97384.16;4899948;29;20236;-63
2023/09/07 00:36:49;;;;;;;7.83;7.17;;;;;;;14.46;100.00;97374.31;4900719;29;20212;-67
2023/09/07 00:39:17;;;;;;;7.70;7.10;;;;;;;14.39;100.00;97384.16;4787832;29;20756;-67
2023/09/07 00:41:46;;;;;;;7.43;6.90;;;;;;;14.31;100.00;97387.03;4902553;29;20605;-62
2023/09/07 00:44:14;;;;;;;7.33;6.83;;;;;;;14.28;100.00;97379.44;4901091;29;20319;-63
2023/09/07 00:46:41;;;;;;;8.03;7.53;;;;;;;14.16;100.00;97387.22;4902124;29;20217;-64
2023/09/07 00:49:09;;;;;;;7.20;6.70;;;;;;;14.09;100.00;97379.19;4898835;29;20326;-63
2023/09/07 00:51:37;;;;;;;7.13;6.50;;;;;;;14.09;100.00;97391.72;4902284;29;20227;-64
2023/09/07 00:54:04;;;;;;;8.07;7.47;;;;;;;14.01;100.00;97392.69;4898145;29;20255;-65
2023/09/07 00:56:32;;;;;;;7.23;6.63;;;;;;;13.95;100.00;97396.19;4902679;29;20295;-67
2023/09/07 00:59:02;;;;;;;7.20;6.70;;;;;;;13.87;100.00;97392.69;4899804;29;20224;-61
2023/09/07 01:01:31;;;;;;;7.90;7.20;;;;;;;13.84;100.00;97393.06;4902619;29;20212;-65
2023/09/07 01:03:58;;;;;;;7.60;7.10;;;;;;;13.79;100.00;97384.03;4898635;29;20311;-66
2023/09/07 01:06:29;;;;;;;7.57;7.07;;;;;;;13.73;100.00;97385.63;4900692;29;20208;-70
2023/09/07 01:09:02;;;;;;;8.27;7.67;;;;;;;13.70;100.00;97378.88;4898665;29;20231;-64
2023/09/07 01:11:36;;;;;;;8.17;7.37;;;;;;;13.68;100.00;97383.59;4902853;29;20295;-63
2023/09/07 01:14:06;;;;;;;8.70;7.63;;;;;;;13.68;100.00;97383.59;4783862;29;21775;-60
2023/09/07 01:16:34;;;;;;;7.40;6.90;;;;;;;13.55;100.00;97371.03;4901921;29;20213;-59
2023/09/07 01:19:02;;;;;;;7.40;6.87;;;;;;;13.56;100.00;97367.38;4897430;29;20204;-62
2023/09/07 01:21:36;;;;;;;8.33;7.10;;;;;;;13.52;100.00;97374.09;4903357;29;20216;-61
2023/09/07 01:24:05;;;;;;;8.83;7.63;;;;;;;13.54;100.00;97376.56;4898147;29;20251;-63
2023/09/07 01:26:33;;;;;;;6.70;6.30;;;;;;;13.51;100.00;97369.81;4902185;29;20340;-59
2023/09/07 01:29:01;;;;;;;9.33;7.10;;;;;;;13.43;100.00;97367.28;4898689;29;20782;-63
2023/09/07 01:31:29;;;;;;;7.40;6.70;;;;;;;13.46;100.00;97365.06;4902962;29;20231;-62
2023/09/07 01:33:56;;;;;;;7.23;6.47;;;;;;;13.41;100.00;97372.78;4897229;29;20239;-62
2023/09/07 01:36:24;;;;;;;7.13;6.53;;;;;;;13.34;100.00;97368.44;4900650;29;20319;-61
2023/09/07 01:38:53;;;;;;;7.47;6.73;;;;;;;13.32;100.00;97377.44;4896731;29;20421;-60
2023/09/07 01:41:21;;;;;;;6.90;6.47;;;;;;;13.36;100.00;97369.06;4902841;29;20973;-61
2023/09/07 01:43:49;;;;;;;7.23;6.73;;;;;;;13.34;100.00;97371.09;4896960;29;20232;-61
2023/09/07 01:46:16;;;;;;;8.00;7.30;;;;;;;13.32;100.00;97371.31;4903703;29;20600;-61
2023/09/07 01:48:45;;;;;;;7.43;6.83;;;;;;;13.30;100.00;97363.53;4800068;29;20400;-68
2023/09/07 01:51:12;;;;;;;8.70;7.70;;;;;;;13.29;100.00;97369.84;4896579;29;20310;-59
2023/09/07 01:53:40;;;;;;;7.93;7.33;;;;;;;13.29;100.00;97369.84;4896572;29;20255;-66
2023/09/07 01:56:10;;;;;;;7.80;7.20;;;;;;;13.27;100.00;97369.25;4841152;29;20220;-65
2023/09/07 01:58:38;;;;;;;7.27;6.87;;;;;;;13.25;100.00;97370.44;4902833;29;20235;-62
2023/09/07 02:01:06;;;;;;;7.37;6.67;;;;;;;13.23;100.00;97375.97;4897520;29;20208;-63
2023/09/07 02:03:34;;;;;;;8.13;7.33;;;;;;;13.20;100.00;97373.72;4901585;29;20311;-62
2023/09/07 02:06:02;;;;;;;7.47;6.80;;;;;;;13.18;100.00;97373.88;4895965;29;20516;-63
2023/09/07 02:08:30;;;;;;;7.80;7.20;;;;;;;13.18;100.00;97373.09;4900851;29;20263;-63
2023/09/07 02:10:58;;;;;;;7.70;7.20;;;;;;;13.12;100.00;97371.22;4895168;29;20715;-66
2023/09/07 02:13:27;;;;;;;8.20;7.70;;;;;;;13.06;100.00;97369.31;4899623;29;20259;-60
2023/09/07 02:15:54;;;;;;;8.23;7.63;;;;;;;13.07;100.00;97373.59;4894891;29;20208;-62
2023/09/07 02:18:22;;;;;;;8.13;7.53;;;;;;;13.07;100.00;97370.94;4901776;29;20866;-63
2023/09/07 02:20:50;;;;;;;8.33;7.73;;;;;;;13.08;100.00;97372.63;4774241;29;20643;-59
2023/09/07 02:23:18;;;;;;;7.70;7.20;;;;;;;13.08;100.00;97380.59;4901055;29;20263;-61
2023/09/07 02:25:46;;;;;;;7.83;7.23;;;;;;;13.02;100.00;97366.22;4897210;29;20209;-63
2023/09/07 02:28:13;;;;;;;7.13;6.73;;;;;;;13.01;100.00;97368.06;4903125;29;21634;-63
2023/09/07 02:30:42;;;;;;;8.00;7.40;;;;;;;13.01;100.00;97360.06;4901187;29;20881;-69
2023/09/07 02:33:10;;;;;;;9.13;8.53;;;;;;;12.98;100.00;97363.13;4905172;29;20242;-62
2023/09/07 02:35:38;;;;;;;7.80;7.10;;;;;;;12.94;100.00;97361.88;4901243;29;20208;-62
2023/09/07 02:38:05;;;;;;;8.47;7.30;;;;;;;12.93;100.00;97362.91;4901772;29;20207;-63
2023/09/07 02:40:33;;;;;;;8.27;7.50;;;;;;;12.94;100.00;97367.19;4897973;29;20296;-59
2023/09/07 02:43:00;;;;;;;8.17;7.40;;;;;;;13.01;100.00;97370.72;4905958;29;20776;-61
2023/09/07 02:45:28;;;;;;;8.70;8.00;;;;;;;13.01;100.00;97368.06;4902593;29;20224;-60
2023/09/07 02:47:57;;;;;;;7.73;7.13;;;;;;;13.18;100.00;97368.56;4904866;29;20336;-63
2023/09/07 02:50:25;;;;;;;8.33;7.73;;;;;;;13.24;100.00;97366.97;4900207;29;20224;-67
2023/09/07 02:52:52;;;;;;;7.80;7.20;;;;;;;13.26;100.00;97366.78;4902363;29;20227;-58
2023/09/07 02:55:20;;;;;;;9.13;8.33;;;;;;;13.29;100.00;97369.06;4779232;29;20224;-61
2023/09/07 02:57:48;;;;;;;7.97;7.27;;;;;;;13.31;100.00;97359.84;4904126;29;20240;-61
2023/09/07 03:00:17;;;;;;;7.90;7.40;;;;;;;13.29;100.00;97361.88;4899166;29;20276;-61
2023/09/07 03:02:45;;;;;;;8.00;7.40;;;;;;;13.27;100.00;97355.94;4905726;29;20244;-58
2023/09/07 03:05:14;;;;;;;7.40;6.90;;;;;;;13.23;100.00;97353.84;4900382;29;20204;-58
2023/09/07 03:07:41;;;;;;;6.80;6.40;;;;;;;13.18;100.00;97354.47;4904228;29;20216;-65
2023/09/07 03:10:10;;;;;;;8.03;7.53;;;;;;;13.12;100.00;97355.25;4897363;29;20308;-64
2023/09/07 03:12:38;;;;;;;7.27;6.67;;;;;;;13.11;100.00;97361.59;4902677;29;20802;-67
2023/09/07 03:15:07;;;;;;;7.83;7.17;;;;;;;13.11;100.00;97357.06;4899399;29;20216;-63
2023/09/07 03:17:35;;;;;;;7.63;7.03;;;;;;;13.18;100.00;97365.09;4905053;29;20287;-65
2023/09/07 03:20:13;;;;;;;8.03;7.43;;;;;;;13.14;100.00;97359.34;4899509;29;20208;-60
2023/09/07 03:22:43;;;;;;;8.23;7.63;;;;;;;13.18;100.00;97351.81;4903899;29;20283;-62
2023/09/07 03:25:11;;;;;;;7.97;7.37;;;;;;;13.20;100.00;97354.25;4898564;29;20347;-58
2023/09/07 03:27:38;;;;;;;7.90;7.23;;;;;;;13.21;100.00;97353.22;4904523;29;20201;-61
2023/09/07 03:30:07;;;;;;;7.30;6.80;;;;;;;13.18;100.00;97351.81;4781599;29;21844;-60
2023/09/07 03:32:35;;;;;;;7.87;7.30;;;;;;;13.11;100.00;97345.63;4898058;29;20299;-69
2023/09/07 03:35:06;;;;;;;8.30;7.60;;;;;;;13.11;100.00;97354.41;4899865;29;20216;-61
2023/09/07 03:37:34;;;;;;;8.40;7.47;;;;;;;13.08;100.00;97351.34;4904458;29;20256;-60
2023/09/07 03:40:05;;;;;;;8.37;7.67;;;;;;;12.99;100.00;97346.16;4898111;29;20228;-62
2023/09/07 03:42:33;;;;;;;8.37;7.67;;;;;;;13.00;100.00;97352.31;4902990;29;20331;-61
2023/09/07 03:45:00;;;;;;;7.50;6.90;;;;;;;12.92;100.00;97363.09;4841434;29;20633;-63
2023/09/07 03:47:29;;;;;;;7.97;7.37;;;;;;;12.84;100.00;97359.56;4905202;29;20204;-64
2023/09/07 03:49:57;;;;;;;7.83;7.20;;;;;;;12.72;100.00;97363.78;4899350;29;20206;-60
2023/09/07 03:52:26;;;;;;;7.40;6.90;;;;;;;12.67;100.00;97364.34;4900782;29;20364;-59
2023/09/07 03:54:54;;;;;;;7.47;6.97;;;;;;;12.66;100.00;97360.03;4899447;29;20774;-66
2023/09/07 03:57:23;;;;;;;7.93;7.17;;;;;;;12.62;100.00;97374.72;4901176;29;20243;-67
2023/09/07 03:59:51;;;;;;;8.27;7.67;;;;;;;12.66;100.00;97360.03;4842555;29;20247;-67
2023/09/07 04:02:19;;;;;;;8.33;7.00;;;;;;;12.72;100.00;97364.59;4902485;29;20819;-65
2023/09/07 04:04:49;;;;;;;7.00;6.50;;;;;;;12.70;100.00;97356.00;4784074;29;20463;-61
2023/09/07 04:07:17;;;;;;;6.20;5.80;;;;;;;12.77;100.00;97360.53;4900453;29;20280;-63
2023/09/07 04:09:46;;;;;;;6.60;6.10;;;;;;;12.88;100.00;97366.16;4901544;29;20680;-67
2023/09/07 04:12:14;;;;;;;6.70;6.20;;;;;;;12.96;100.00;97361.69;4900869;29;20707;-63
2023/09/07 04:14:44;;;;;;;7.50;6.90;;;;;;;13.06;100.00;97358.66;4899295;29;20205;-66
2023/09/07 04:17:12;;;;;;;8.63;7.93;;;;;;;13.03;100.00;97358.03;4900344;29;21534;-61
2023/09/07 04:19:39;;;;;;;7.60;7.00;;;;;;;13.02;100.00;97359.06;4900218;29;20307;-62
2023/09/07 04:22:07;;;;;;;8.00;7.23;;;;;;;12.95;100.00;97357.41;4901093;29;20755;-65
2023/09/07 04:24:35;;;;;;;8.00;7.47;;;;;;;12.90;100.00;97352.66;4899398;29;20695;-60
2023/09/07 04:27:03;;;;;;;7.70;7.13;;;;;;;12.85;100.00;97360.41;4900918;29;20208;-64
2023/09/07 04:29:31;;;;;;;7.67;7.07;;;;;;;12.75;100.00;97366.03;4897827;29;20283;-67
2023/09/07 04:32:00;;;;;;;8.33;7.53;;;;;;;12.66;100.00;97359.22;4902372;29;20343;-61
2023/09/07 04:34:28;;;;;;;7.80;7.20;;;;;;;12.69;100.00;97366.81;4897989;29;20211;-63
2023/09/07 04:36:55;;;;;;;7.40;6.90;;;;;;;12.69;100.00;97367.66;4898845;29;20948;-60
2023/09/07 04:39:23;;;;;;;8.10;7.50;;;;;;;12.66;100.00;97365.34;4782249;29;20248;-65
2023/09/07 04:41:52;;;;;;;8.30;7.60;;;;;;;12.64;100.00;97374.56;4903403;29;20211;-64
2023/09/07 04:44:20;;;;;;;8.80;7.80;;;;;;;12.61;100.00;97370.44;4898115;29;20637;-61
2023/09/07 04:46:47;;;;;;;8.17;7.57;;;;;;;12.63;100.00;97370.25;4901433;29;20295;-65
2023/09/07 04:49:17;;;;;;;8.23;7.63;;;;;;;12.59;100.00;97375.13;4895040;29;20247;-68
2023/09/07 04:51:44;;;;;;;8.07;7.47;;;;;;;12.59;100.00;97377.78;4902001;29;20236;-62
2023/09/07 04:54:13;;;;;;;9.47;8.67;;;;;;;12.59;100.00;97375.97;4894951;29;20208;-62
2023/09/07 04:56:40;;;;;;;8.07;7.27;;;;;;;12.58;100.00;97373.47;4901940;29;20846;-59
2023/09/07 04:59:08;;;;;;;8.03;7.33;;;;;;;12.59;100.00;97377.78;4899787;29;20204;-61
2023/09/07 05:01:35;;;;;;;8.30;7.53;;;;;;;12.56;100.00;97386.97;4901968;29;20334;-64
2023/09/07 05:04:03;;;;;;;7.97;6.93;;;;;;;12.56;100.00;97383.47;4897190;29;20921;-66
2023/09/07 05:06:36;;;;;;;8.63;7.93;;;;;;;12.49;100.00;97374.63;4867493;29;20314;-70
2023/09/07 05:09:04;;;;;;;8.17;7.47;;;;;;;12.57;100.00;97387.78;4885271;29;20208;-67
2023/09/07 05:11:35;;;;;;;9.07;8.37;;;;;;;12.49;100.00;97379.94;4828227;29;20358;-68
2023/09/07 05:14:03;;;;;;;8.67;7.97;;;;;;;12.57;100.00;97399.25;4869674;29;20252;-62
2023/09/07 05:16:30;;;;;;;8.53;7.93;;;;;;;12.63;100.00;97392.31;4899513;29;20223;-65
2023/09/07 05:18:58;;;;;;;8.77;8.07;;;;;;;12.66;100.00;97397.25;4898925;29;20553;-62
2023/09/07 05:21:26;;;;;;;8.20;7.60;;;;;;;12.70;100.00;97389.72;4898971;29;20203;-66
2023/09/07 05:23:55;;;;;;;8.77;7.97;;;;;;;12.77;100.00;97403.09;4898829;29;20224;-62
2023/09/07 05:26:24;;;;;;;9.30;8.60;;;;;;;12.83;100.00;97403.13;4901404;29;20208;-68
2023/09/07 05:28:52;;;;;;;9.17;8.37;;;;;;;12.87;100.00;97395.59;4900417;29;20587;-61
2023/09/07 05:31:20;;;;;;;8.00;7.40;;;;;;;12.96;100.00;97397.06;4897175;29;20255;-67
2023/09/07 05:33:47;;;;;;;8.47;7.87;;;;;;;13.09;100.00;97396.34;4899668;29;20228;-65
2023/09/07 05:36:15;;;;;;;8.60;7.77;;;;;;;13.11;100.00;97402.28;4902078;29;20731;-68
2023/09/07 05:38:43;;;;;;;8.67;7.73;;;;;;;13.16;100.00;97407.84;4898221;29;20692;-61
2023/09/07 05:41:12;;;;;;;7.77;7.17;;;;;;;13.20;100.00;97402.97;4899687;29;20231;-61
2023/09/07 05:43:39;;;;;;;10.13;8.37;;;;;;;13.32;100.00;97401.41;4898226;29;20228;-61
2023/09/07 05:46:07;;;;;;;8.43;7.83;;;;;;;13.31;100.00;97391.78;4897568;29;20244;-69
2023/09/07 05:48:37;;;;;;;8.03;7.23;;;;;;;13.59;100.00;97412.22;4800597;29;20902;-64
2023/09/07 05:51:05;;;;;;;8.17;7.47;;;;;;;13.70;100.00;97410.00;4900888;29;20684;-61
2023/09/07 05:53:33;;;;;;;8.47;7.60;;;;;;;13.80;100.00;97412.31;4898843;29;20664;-61
2023/09/07 05:56:00;;;;;;;8.30;7.57;;;;;;;13.94;100.00;97411.31;4903524;29;20664;-65
2023/09/07 05:58:29;;;;;;;7.57;7.07;;;;;;;14.12;100.00;97409.94;4896566;29;20208;-63
2023/09/07 06:00:57;;;;;;;8.03;7.37;;;;;;;14.21;100.00;97407.94;4898828;29;20664;-61
2023/09/07 06:03:25;;;;;;;7.73;7.13;;;;;;;14.24;100.00;97410.19;4900515;29;20279;-60
2023/09/07 06:05:53;;;;;;;7.90;7.30;;;;;;;14.41;100.00;97408.78;4906790;29;20329;-65
2023/09/07 06:08:20;;;;;;;8.77;8.07;;;;;;;14.46;100.00;97411.66;4900222;29;20295;-63
2023/09/07 06:10:49;;;;;;;8.27;7.67;;;;;;;14.56;100.00;97413.09;4906016;29;20245;-58
2023/09/07 06:13:16;;;;;;;8.67;7.93;;;;;;;14.63;100.00;97411.28;4899571;29;20711;-60
2023/09/07 06:15:45;;;;;;;9.00;7.33;;;;;;;14.84;100.00;97420.94;4906161;29;20208;-60
2023/09/07 06:18:13;;;;;;;7.80;7.10;;;;;;;14.98;100.00;97421.75;4785145;29;20216;-63
2023/09/07 06:20:41;;;;;;;7.47;6.97;;;;;;;15.03;100.00;97413.94;4906807;29;20212;-66
2023/09/07 06:23:09;;;;;;;7.60;7.03;;;;;;;15.16;100.00;97421.13;4900574;29;20224;-61
2023/09/07 06:25:36;;;;;;;8.23;7.63;;;;;;;15.23;100.00;97417.63;4905375;29;20216;-62
2023/09/07 06:28:05;;;;;;;7.77;7.00;;;;;;;15.28;100.00;97415.16;4902487;29;20215;-66
2023/09/07 06:30:32;;;;;;;7.40;6.90;;;;;;;15.50;100.00;97423.72;4906756;29;20296;-62
2023/09/07 06:33:02;;;;;;;7.87;7.10;;;;;;;15.61;100.00;97417.72;4903821;29;20607;-64
2023/09/07 06:35:29;;;;;;;7.33;6.73;;;;;;;15.73;100.00;97425.09;4901830;29;20267;-61
2023/09/07 06:37:57;;;;;;;7.20;6.60;;;;;;;15.77;100.00;97428.97;4902486;29;20212;-65
2023/09/07 06:40:25;;;;;;;6.60;6.10;;;;;;;16.01;100.00;97418.63;4902513;29;20235;-62
2023/09/07 06:42:54;;;;;;;6.80;6.30;;;;;;;16.18;100.00;97424.28;4900416;29;20231;-65
2023/09/07 06:45:23;;;;;;;6.60;6.10;;;;;;;16.34;100.00;97420.28;4903548;29;20231;-63
2023/09/07 06:47:51;;;;;;;6.93;6.43;;;;;;;16.32;100.00;97417.00;4898883;29;20219;-61
2023/09/07 06:50:21;;;;;;;6.80;6.30;;;;;;;16.47;100.00;97417.50;4904207;29;20632;-62
2023/09/07 06:52:48;;;;;;;6.67;6.17;;;;;;;16.54;100.00;97428.19;4784728;29;20620;-62
2023/09/07 06:55:16;;;;;;;6.57;6.07;;;;;;;16.70;100.00;97420.69;4902488;29;20239;-61
2023/09/07 06:57:43;;;;;;;5.90;5.50;;;;;;;16.73;100.00;97413.03;4901809;29;20212;-63
2023/09/07 07:00:12;;;;;;;6.57;6.07;;;;;;;16.86;100.00;97422.81;4903086;29;20217;-69
2023/09/07 07:02:40;;;;;;;6.80;6.30;;;;;;;17.00;100.00;97425.38;4903005;29;20219;-60
2023/09/07 07:05:08;;;;;;;7.70;5.97;;;;;;;17.10;100.00;97419.53;4904666;29;20208;-64
2023/09/07 07:07:37;;;;;;;6.33;5.93;;;;;;;17.23;100.00;97431.97;4901502;29;20219;-63
2023/09/07 07:10:06;;;;;;;6.67;6.17;;;;;;;17.40;100.00;97421.53;4901495;29;20855;-62
2023/09/07 07:12:35;;;;;;;7.10;6.40;;;;;;;17.31;100.00;97427.16;4899487;29;20672;-59
2023/09/07 07:15:02;;;;;;;6.47;6.00;;;;;;;17.40;100.00;97425.00;4908676;29;20279;-67
2023/09/07 07:17:30;;;;;;;6.00;5.60;;;;;;;17.55;100.00;97424.63;4898470;29;20515;-62
2023/09/07 07:19:58;;;;;;;7.33;5.63;;;;;;;17.60;100.00;97426.66;4903371;29;20200;-62
2023/09/07 07:22:26;;;;;;;6.47;5.97;;;;;;;17.72;100.00;97422.19;4782864;29;20484;-64
2023/09/07 07:24:55;;;;;;;6.43;5.93;;;;;;;17.89;100.00;97425.06;4903263;29;20304;-66
2023/09/07 07:27:22;;;;;;;6.60;6.00;;;;;;;18.06;100.00;97424.50;4899650;29;20266;-64
2023/09/07 07:29:51;;;;;;;7.50;6.03;;;;;;;18.20;100.00;97422.47;4905550;29;20271;-64
2023/09/07 07:32:19;;;;;;;5.63;5.23;;;;;;;18.39;100.00;97419.72;4895060;29;20235;-64
2023/09/07 07:34:47;;;;;;;5.90;5.50;;;;;;;18.49;100.00;97422.66;4903217;29;20316;-66
2023/09/07 07:37:15;;;;;;;6.87;6.33;;;;;;;18.69;100.00;97421.53;4898985;29;20732;-64
2023/09/07 07:39:42;;;;;;;5.67;5.37;;;;;;;18.73;100.00;97420.84;4904917;29;20208;-62
2023/09/07 07:42:12;;;;;;;5.43;5.03;;;;;;;18.86;100.00;97421.69;4898604;29;20289;-60
2023/09/07 07:44:40;;;;;;;5.20;4.90;;;;;;;18.93;100.00;97423.19;4903601;29;20244;-63
2023/09/07 07:47:07;;;;;;;5.57;5.17;;;;;;;19.13;100.00;97429.31;4902413;29;20211;-63
2023/09/07 07:49:36;;;;;;;4.97;4.67;;;;;;;19.29;100.00;97425.09;4902677;29;20235;-65
2023/09/07 07:52:05;;;;;;;5.30;5.00;;;;;;;19.32;100.00;97436.22;4897319;29;20342;-61
2023/09/07 07:54:35;;;;;;;5.13;4.73;;;;;;;19.63;100.00;97431.50;4901727;29;20222;-63
2023/09/07 07:57:03;;;;;;;4.67;4.37;;;;;;;19.73;100.00;97425.53;4780813;29;20913;-63
2023/09/07 07:59:34;;;;;;;5.03;4.73;;;;;;;19.90;100.00;97431.03;4902115;29;20205;-64
2023/09/07 08:02:02;;;;;;;4.80;4.40;;;;;;;19.95;100.00;97417.66;4896850;29;20736;-62
2023/09/07 08:04:32;;;;;;;5.07;4.70;;;;;;;20.10;100.00;97422.53;4903293;29;20236;-62
2023/09/07 08:07:03;;;;;;;4.50;4.17;;;;;;;20.19;100.00;97427.53;4900204;29;20350;-61
2023/09/07 08:09:31;;;;;;;5.90;5.30;;;;;;;20.25;100.00;97421.97;4898882;29;20215;-64
2023/09/07 08:12:02;;;;;;;4.77;4.37;;;;;;;20.36;100.00;97424.88;4898687;29;20291;-62
2023/09/07 08:14:31;;;;;;;4.00;3.80;;;;;;;20.46;100.00;97426.94;4903796;29;20646;-60
2023/09/07 08:16:59;;;;;;;4.93;4.53;;;;;;;20.43;100.00;97425.53;4899605;29;20281;-60
2023/09/07 08:19:28;;;;;;;4.50;4.20;;;;;;;20.58;100.00;97425.00;4902126;29;20323;-66
2023/09/07 08:21:55;;;;;;;5.27;4.80;;;;;;;20.72;100.00;97425.50;4898126;29;20455;-62
2023/09/07 08:24:23;;;;;;;4.67;4.23;;;;;;;20.82;100.00;97425.69;4903225;29;20300;-59
2023/09/07 08:26:54;;;;;;;5.03;4.73;;;;;;;20.88;100.00;97431.16;4786603;29;20723;-68
2023/09/07 08:29:24;;;;;;;4.63;4.30;;;;;;;20.89;100.00;97432.78;4902412;29;20644;-64
2023/09/07 08:31:53;;;;;;;4.37;4.17;;;;;;;20.92;100.00;97429.59;4900691;29;20741;-62
2023/09/07 08:34:25;;;;;;;4.97;4.67;;;;;;;20.98;100.00;97431.31;4901387;29;20247;-65
2023/09/07 08:36:54;;;;;;;4.70;4.30;;;;;;;21.02;100.00;97423.56;4897854;29;20427;-63
2023/09/07 08:39:23;;;;;;;5.00;4.60;;;;;;;21.09;100.00;97425.03;4902594;29;20200;-62
2023/09/07 08:41:51;;;;;;;5.53;5.03;;;;;;;21.11;100.00;97420.22;4898084;29;20536;-63
2023/09/07 08:44:29;;;;;;;4.27;3.97;;;;;;;21.29;100.00;97417.50;4899868;29;20200;-64
2023/09/07 08:46:58;;;;;;;4.87;4.57;;;;;;;21.29;100.00;97423.69;4896237;29;20240;-63
2023/09/07 08:49:26;;;;;;;4.37;4.07;;;;;;;21.19;98.22;97423.53;4900993;29;20228;-65
2023/09/07 08:51:58;;;;;;;4.83;4.43;;;;;;;21.27;94.99;97415.03;4897659;29;20259;-62
2023/09/07 08:54:26;;;;;;;4.67;4.37;;;;;;;21.40;98.81;97414.72;4902691;29;20228;-63
2023/09/07 08:56:56;;;;;;;4.77;4.47;;;;;;;21.50;100.00;97421.28;4899313;29;20240;-64
2023/09/07 08:59:24;;;;;;;5.93;4.43;;;;;;;21.61;93.93;97419.56;4900962;29;20575;-63
2023/09/07 09:01:58;;;;;;;4.50;4.10;;;;;;;21.68;92.80;97426.41;4782322;29;20585;-60
2023/09/07 09:04:27;;;;;;;4.27;3.97;;;;;;;21.75;80.66;97422.69;4900074;29;20220;-65
2023/09/07 09:06:55;;;;;;;4.47;4.17;;;;;;;21.72;80.85;97421.34;4897563;29;20381;-70
2023/09/07 09:09:24;;;;;;;5.20;4.10;;;;;;;21.65;85.68;97424.22;4902081;29;20878;-65
2023/09/07 09:11:51;;;;;;;4.90;4.50;;;;;;;21.72;87.06;97428.59;4897817;29;20212;-66
2023/09/07 09:14:21;;;;;;;4.27;4.03;;;;;;;21.80;82.49;97433.56;4904046;29;20240;-61
2023/09/07 09:16:52;;;;;;;4.57;4.23;;;;;;;21.89;83.26;97425.84;4896291;29;20388;-68
2023/09/07 09:19:31;;;;;;;4.97;4.50;;;;;;;21.98;79.60;97429.75;4901422;29;20365;-63
2023/09/07 09:22:01;;;;;;;6.47;4.33;;;;;;;21.99;77.25;97425.97;4895975;29;20945;-64
2023/09/07 09:24:32;;;;;;;4.63;4.30;;;;;;;22.14;80.09;97424.50;4901404;29;20212;-63
2023/09/07 09:27:00;;;;;;;4.30;4.10;;;;;;;22.26;77.27;97425.16;4896485;29;20208;-65
2023/09/07 09:29:28;;;;;;;4.20;3.90;;;;;;;22.16;73.29;97425.06;4900961;29;20217;-64
2023/09/07 09:31:56;;;;;;;3.93;3.70;;;;;;;22.29;71.71;97430.06;4898011;29;20271;-61
2023/09/07 09:34:25;;;;;;;4.20;3.90;;;;;;;22.37;69.90;97426.94;4898819;29;20236;-59
2023/09/07 09:36:54;;;;;;;3.87;3.67;;;;;;;22.43;66.01;97422.38;4776483;29;21364;-65
2023/09/07 09:39:25;;;;;;;4.30;4.00;;;;;;;22.47;66.90;97418.13;4907071;29;20212;-63
2023/09/07 09:41:53;;;;;;;4.03;3.83;;;;;;;22.47;68.82;97409.22;4901064;29;21125;-65
2023/09/07 09:44:25;;;;;;;5.63;4.20;;;;;;;22.54;73.25;97405.25;4904785;29;20196;-63
2023/09/07 09:46:54;;;;;;;3.73;3.50;;;;;;;22.59;65.70;97411.78;4901173;29;20212;-64
2023/09/07 09:49:26;;;;;;;4.33;4.10;;;;;;;22.76;67.34;97411.66;4902768;29;20228;-65
2023/09/07 09:51:53;;;;;;;4.83;4.53;;;;;;;22.96;68.90;97410.97;4902643;29;20299;-67
2023/09/07 09:54:23;;;;;;;5.00;4.50;;;;;;;23.12;69.72;97411.91;4904173;29;20652;-62
2023/09/07 09:56:52;;;;;;;6.27;4.30;;;;;;;23.08;69.00;97413.47;4899888;29;20287;-66
2023/09/07 09:59:19;;;;;;;5.23;3.80;;;;;;;23.04;63.67;97412.38;4907250;29;20291;-64
2023/09/07 10:01:50;;;;;;;6.47;3.87;;;;;;;23.26;67.13;97410.41;4902047;29;20204;-67
2023/09/07 10:04:19;;;;;;;4.47;4.07;;;;;;;23.36;67.48;97416.94;4907094;29;20781;-64
2023/09/07 10:06:56;;;;;;;4.17;3.90;;;;;;;23.34;62.04;97421.78;4791822;29;21980;-67
2023/09/07 10:09:24;;;;;;;4.30;4.10;;;;;;;23.48;65.98;97422.94;4909151;29;20234;-62
2023/09/07 10:11:54;;;;;;;4.17;3.90;;;;;;;23.39;59.05;97419.13;4903142;29;20220;-63
2023/09/07 10:14:21;;;;;;;4.23;3.93;;;;;;;23.37;58.85;97415.84;4904252;29;20314;-67
2023/09/07 10:16:51;;;;;;;3.87;3.57;;;;;;;23.37;56.61;97411.28;4898400;29;20271;-67
2023/09/07 10:19:20;;;;;;;3.83;3.63;;;;;;;23.47;50.01;97415.91;4906878;29;20258;-66
2023/09/07 10:21:48;;;;;;;4.20;3.90;;;;;;;23.51;53.98;97413.50;4900525;29;20220;-66
2023/09/07 10:24:28;;;;;;;3.80;3.43;;;;;;;23.66;53.59;97404.66;4905032;29;20303;-63
2023/09/07 10:27:00;;;;;;;3.73;3.53;;;;;;;23.64;56.71;97404.91;4905051;29;20215;-67
2023/09/07 10:29:28;;;;;;;4.13;3.83;;;;;;;23.68;59.45;97403.34;4905935;29;20213;-65
2023/09/07 10:31:56;;;;;;;4.50;4.20;;;;;;;23.67;55.13;97398.16;4898368;29;20287;-64
2023/09/07 10:34:35;;;;;;;5.77;5.37;;;;;;;23.64;59.02;97399.50;4904786;29;20581;-62
2023/09/07 10:37:04;;;;;;;4.03;3.57;;;;;;;23.79;58.13;97393.34;4900911;29;20255;-62
2023/09/07 10:39:33;;;;;;;3.97;3.67;;;;;;;23.94;61.94;97394.50;4898913;29;20701;-62
2023/09/07 10:42:01;;;;;;;3.80;3.60;;;;;;;24.11;63.74;97389.69;4781878;29;21608;-63
2023/09/07 10:44:30;;;;;;;4.60;4.17;;;;;;;24.19;68.19;97391.06;4906551;29;20204;-62
2023/09/07 10:46:58;;;;;;;4.27;4.07;;;;;;;24.14;70.41;97386.44;4902318;29;20795;-62
2023/09/07 10:49:25;;;;;;;4.97;4.67;;;;;;;24.12;74.66;97380.47;4904829;29;20268;-65
2023/09/07 10:51:53;;;;;;;5.10;4.70;;;;;;;24.11;77.17;97375.34;4898760;29;20216;-68
2023/09/07 10:54:24;;;;;;;4.73;4.40;;;;;;;24.03;76.64;97373.16;4904338;29;20323;-60
2023/09/07 10:56:57;;;;;;;4.70;4.40;;;;;;;24.05;77.33;97371.81;4901008;29;20215;-63
2023/09/07 10:59:28;;;;;;;4.60;4.30;;;;;;;24.15;77.93;97373.72;4905152;29;20248;-60
2023/09/07 11:02:04;;;;;;;4.47;4.17;;;;;;;24.22;80.95;97371.56;4901036;29;20219;-66
2023/09/07 11:04:32;;;;;;;5.07;4.67;;;;;;;24.28;74.31;97367.78;4902386;29;20235;-67
2023/09/07 11:07:00;;;;;;;5.17;4.87;;;;;;;24.42;75.89;97362.66;4902650;29;20251;-61
2023/09/07 11:09:27;;;;;;;4.43;4.13;;;;;;;24.51;77.10;97354.81;4906411;29;20209;-65
2023/09/07 11:11:56;;;;;;;4.23;4.03;;;;;;;24.59;79.28;97353.44;4898265;29;20923;-60
2023/09/07 11:14:30;;;;;;;4.60;4.30;;;;;;;24.60;76.36;97348.84;4903111;29;20259;-59
2023/09/07 11:16:57;;;;;;;4.10;3.90;;;;;;;24.72;79.45;97338.53;4779238;29;21950;-60
2023/09/07 11:19:25;;;;;;;4.33;4.13;;;;;;;24.79;81.33;97344.53;4904145;29;20291;-62
2023/09/07 11:21:54;;;;;;;4.70;4.40;;;;;;;24.87;76.77;97334.25;4901371;29;20791;-65
2023/09/07 11:24:22;;;;;;;8.20;4.37;;;;;;;25.03;83.66;97335.81;4905415;29;20299;-63
2023/09/07 11:26:49;;;;;;;4.73;4.43;;;;;;;25.19;79.84;97333.88;4899741;29;20783;-64
2023/09/07 11:29:19;;;;;;;5.10;4.73;;;;;;;25.34;79.79;97333.03;4904643;29;20346;-65
2023/09/07 11:31:46;;;;;;;5.10;4.70;;;;;;;25.37;74.90;97332.47;4901182;29;20714;-66
2023/09/07 11:34:15;;;;;;;4.27;3.97;;;;;;;25.39;77.26;97333.00;4904929;29;20211;-62